aviador You're here:

KMBY Decoded Metar

in
Report Time2017-10-19 21:35:00
UTC Time2017-10-19 21:50:23
Flight Rules vfr VFR
Wind180° at 06 kt
W.Decomp.*RWY 13: 3.9 kt HW 4.6 kt RCW
RWY 23: 3.9 kt HW 4.6 kt LCW
Visibility9999 m
Phenomena:N/A
Clouds:N/A
Expected CloudBase > 8,400 ft AGL from Temp-Dew spread
CeilingNone
Temp27°C
Dew Point06°C (26% RH)
Heat Index26.3°C
AAT23.9°C
QNH1019 hPa
Raw Report
KMBY 192135Z AUTO 18006KT 10SM CLR 27/06 A3010 RMK AO2=

Extra information for KMBY:More info

Social comments